Holland, Texas
Current Conditions -  °F | °C
As of 6:58 AM on Saturday 25 Oct 2014 (Local Time) from KGRK Reporting Station
Clear Clear  
Wind Chill: 64°   Ceiling: Unl
Heat Index: 64°   Visibility: 10mi
Dew Point: 57°   Wind: 6mph
Humidity: 77%   Direction: 170°S
Pressure: 30.13"   Gusts: NA
Location:  30.88°N, 97.4°W
Report Text: KGRK 251158Z AUTO 17005KT 10SM CLR 18/14 A3013 RMK AO2 SLP196 T01790138 10196 20163 53002
Loading
Personal Weather Stations






























Interactive Weather Map
Tropical Storm Tracking
New forecast layout! Learn more

10-Day Weather Forecast

Advertisements
Track Severe Weather on mobile